createdAt,value
2022-12-18T00:01:23.904Z,93379.06
2022-12-18T00:03:52.847Z,93365.16
2022-12-18T00:06:21.317Z,93366.84
2022-12-18T00:08:49.440Z,93358.66
2022-12-18T00:11:19.605Z,93354.56
2022-12-18T00:13:47.585Z,93344.03
2022-12-18T00:16:19.472Z,93324.41
2022-12-18T00:18:47.396Z,93310.56
2022-12-18T00:21:16.855Z,93293.34
2022-12-18T00:23:48.456Z,93289.28
2022-12-18T00:26:18.780Z,93295.84
2022-12-18T00:28:47.554Z,93298.31
2022-12-18T00:31:19.395Z,93306.47
2022-12-18T00:33:47.697Z,93305.69
2022-12-18T00:36:20.625Z,93302.31
2022-12-18T00:38:49.471Z,93319.53
2022-12-18T00:41:40.434Z,93320.31
2022-12-18T00:44:08.422Z,93320.22
2022-12-18T00:46:37.630Z,93326.88
2022-12-18T00:49:06.218Z,93326.78
2022-12-18T00:51:34.386Z,93329.28
2022-12-18T00:54:02.693Z,93335.03
2022-12-18T00:56:30.617Z,93327.69
2022-12-18T00:58:58.546Z,93326.00
2022-12-18T01:01:26.618Z,93329.28
2022-12-18T01:03:55.846Z,93329.38
2022-12-18T01:06:24.417Z,93319.53
2022-12-18T01:08:52.192Z,93317.03
2022-12-18T01:11:21.968Z,93313.06
2022-12-18T01:13:49.948Z,93298.31
2022-12-18T01:16:19.848Z,93295.03
2022-12-18T01:18:48.180Z,93291.75
2022-12-18T01:21:18.204Z,93298.31
2022-12-18T01:23:46.123Z,93296.72
2022-12-18T01:26:16.155Z,93295.03
2022-12-18T01:28:45.779Z,93308.25
2022-12-18T01:31:15.659Z,93308.16
2022-12-18T01:33:43.521Z,93313.06
2022-12-18T01:36:20.145Z,93305.69
2022-12-18T01:38:48.672Z,93295.84
2022-12-18T01:41:18.529Z,93286.88
2022-12-18T01:43:52.220Z,93277.91
2022-12-18T01:46:21.808Z,93271.44
2022-12-18T01:48:53.176Z,93261.69
2022-12-18T01:51:23.441Z,93252.72
2022-12-18T01:53:51.482Z,93249.44
2022-12-18T01:56:21.872Z,93250.31
2022-12-18T01:58:57.358Z,93240.50
2022-12-18T02:01:26.255Z,93222.56
2022-12-18T02:03:54.690Z,93211.22
2022-12-18T02:06:30.696Z,93194.09
2022-12-18T02:09:09.850Z,93191.72
2022-12-18T02:11:48.396Z,93183.47
2022-12-18T02:14:25.168Z,93178.63
2022-12-18T02:17:03.093Z,93178.66
2022-12-18T02:19:46.924Z,93164.69
2022-12-18T02:22:31.787Z,93163.97
2022-12-18T02:25:15.647Z,93155.03
2022-12-18T02:27:48.532Z,93139.59
2022-12-18T02:30:17.403Z,93139.59
2022-12-18T02:32:51.556Z,93131.38
2022-12-18T02:35:24.094Z,93125.69
2022-12-18T02:37:56.649Z,93125.75
2022-12-18T02:40:28.245Z,93119.13
2022-12-18T02:42:57.676Z,93117.53
2022-12-18T02:45:27.672Z,93115.03
2022-12-18T02:47:56.015Z,93129.13
2022-12-18T02:50:32.691Z,93113.53
2022-12-18T02:53:12.218Z,93103.81
2022-12-18T02:55:54.579Z,93099.72
2022-12-18T02:58:32.715Z,93085.81
2022-12-18T03:01:13.244Z,93075.97
2022-12-18T03:03:45.790Z,93083.44
2022-12-18T03:06:22.125Z,93079.34
2022-12-18T03:08:56.350Z,93087.59
2022-12-18T03:11:41.942Z,93081.84
2022-12-18T03:14:13.536Z,93081.09
2022-12-18T03:16:44.470Z,93072.06
2022-12-18T03:19:17.399Z,93063.03
2022-12-18T03:21:48.113Z,93064.72
2022-12-18T03:24:19.330Z,93053.31
2022-12-18T03:26:53.069Z,93043.53
2022-12-18T03:29:27.310Z,93031.34
2022-12-18T03:32:00.241Z,93038.59
2022-12-18T03:34:33.062Z,93033.72
2022-12-18T03:37:26.464Z,93030.53
2022-12-18T03:39:54.503Z,93028.16
2022-12-18T03:42:30.823Z,93018.25
2022-12-18T03:45:12.494Z,93024.06
2022-12-18T03:47:53.399Z,93020.00
2022-12-18T03:50:27.248Z,93005.31
2022-12-18T03:53:02.192Z,93006.19
2022-12-18T03:55:35.257Z,93010.25
2022-12-18T03:58:09.325Z,93011.06
2022-12-18T04:00:54.266Z,93011.06
2022-12-18T04:03:26.399Z,93012.75
2022-12-18T04:05:57.636Z,93003.72
2022-12-18T04:08:26.820Z,93002.91
2022-12-18T04:11:03.510Z,93007.09
2022-12-18T04:13:38.027Z,92994.06
2022-12-18T04:19:05.736Z,92980.16
2022-12-18T04:21:39.876Z,92969.53
2022-12-18T04:24:12.184Z,92971.19
2022-12-18T04:26:45.690Z,92970.41
2022-12-18T04:29:24.744Z,92961.38
2022-12-18T04:31:55.281Z,92955.72
2022-12-18T04:34:24.891Z,92956.59
2022-12-18T04:36:54.703Z,92953.44
2022-12-18T04:39:23.931Z,92955.03
2022-12-18T04:41:56.047Z,92950.06
2022-12-18T04:44:26.920Z,92953.34
2022-12-18T04:46:56.834Z,92950.06
2022-12-18T04:49:25.242Z,92943.59
2022-12-18T04:51:53.952Z,92936.25
2022-12-18T04:54:22.182Z,92924.06
2022-12-18T04:56:50.736Z,92917.53
2022-12-18T04:59:18.894Z,92923.34
2022-12-18T05:01:46.847Z,92915.06
2022-12-18T05:04:16.198Z,92935.53
2022-12-18T05:06:44.401Z,92933.75
2022-12-18T05:09:12.332Z,92945.16
2022-12-18T05:11:40.141Z,92949.28
2022-12-18T05:14:07.991Z,92937.03
2022-12-18T05:16:35.922Z,92937.94
2022-12-18T05:19:03.719Z,92935.44
2022-12-18T05:21:32.901Z,92941.19
2022-12-18T05:24:00.672Z,92936.25
2022-12-18T05:26:28.521Z,92943.69
2022-12-18T05:28:56.352Z,92928.09
2022-12-18T05:31:24.193Z,92927.34
2022-12-18T05:33:52.065Z,92928.22
2022-12-18T05:36:19.872Z,92922.47
2022-12-18T05:38:49.066Z,92922.47
2022-12-18T05:41:17.179Z,92917.69
2022-12-18T05:43:44.989Z,92914.50
2022-12-18T05:46:16.219Z,92910.34
2022-12-18T05:48:44.636Z,92906.28
2022-12-18T05:51:15.395Z,92907.06
2022-12-18T05:53:44.390Z,92896.47
2022-12-18T05:56:15.695Z,92889.19
2022-12-18T05:58:43.915Z,92872.94
2022-12-18T06:01:15.204Z,92854.97
2022-12-18T06:03:43.515Z,92846.91
2022-12-18T06:06:16.185Z,92836.28
2022-12-18T06:08:46.473Z,92839.66
2022-12-18T06:11:19.277Z,92828.16
2022-12-18T06:13:46.940Z,92838.06
2022-12-18T06:16:14.944Z,92842.84
2022-12-18T06:18:42.810Z,92846.91
2022-12-18T06:21:10.794Z,92850.19
2022-12-18T06:23:39.179Z,92857.53
2022-12-18T06:26:08.666Z,92864.06
2022-12-18T06:28:38.187Z,92863.19
2022-12-18T06:31:07.221Z,92861.59
2022-12-18T06:33:35.103Z,92864.06
2022-12-18T06:36:04.071Z,92866.44
2022-12-18T06:38:33.168Z,92865.66
2022-12-18T06:41:01.048Z,92858.22
2022-12-18T06:43:28.975Z,92860.72
2022-12-18T06:46:01.985Z,92862.38
2022-12-18T06:48:29.828Z,92867.25
2022-12-18T06:50:57.995Z,92870.63
2022-12-18T06:53:25.859Z,92873.00
2022-12-18T06:55:53.816Z,92876.22
2022-12-18T06:58:25.695Z,92877.88
2022-12-18T07:00:53.654Z,92870.53
2022-12-18T07:03:22.852Z,92855.06
2022-12-18T07:05:50.650Z,92850.19
2022-12-18T07:08:18.444Z,92852.66
2022-12-18T07:10:49.751Z,92849.47
2022-12-18T07:13:19.589Z,92852.75
2022-12-18T07:15:47.436Z,92842.91
2022-12-18T07:18:15.295Z,92854.34
2022-12-18T07:20:45.128Z,92852.56
2022-12-18T07:23:13.923Z,92858.31
2022-12-18T07:25:42.538Z,92864.78
2022-12-18T07:28:15.632Z,92872.13
2022-12-18T07:30:45.100Z,92888.50
2022-12-18T07:33:12.911Z,92886.81
2022-12-18T07:35:40.804Z,92882.75
2022-12-18T07:38:09.965Z,92882.75
2022-12-18T07:40:37.803Z,92883.63
2022-12-18T07:43:05.610Z,92886.91
2022-12-18T07:45:33.579Z,92892.56
2022-12-18T07:48:01.426Z,92895.03
2022-12-18T07:50:29.328Z,92899.91
2022-12-18T07:52:57.166Z,92890.88
2022-12-18T07:55:27.139Z,92900.69
2022-12-18T07:58:00.663Z,92908.84
2022-12-18T08:00:28.747Z,92920.25
2022-12-18T08:02:56.633Z,92920.97
2022-12-18T08:05:24.746Z,92929.91
2022-12-18T08:07:52.569Z,92942.22
2022-12-18T08:10:20.954Z,92943.69
2022-12-18T08:12:52.722Z,92959.09
2022-12-18T08:15:20.545Z,92980.31
2022-12-18T08:17:48.369Z,92999.91
2022-12-18T08:20:17.047Z,93009.56
2022-12-18T08:22:44.871Z,93030.78
2022-12-18T08:25:12.817Z,93053.66
2022-12-18T08:27:40.615Z,93059.22
2022-12-18T08:30:12.090Z,93078.81
2022-12-18T08:32:39.911Z,93100.88
2022-12-18T08:35:09.418Z,93127.72
2022-12-18T08:37:37.901Z,93150.41
2022-12-18T08:40:07.074Z,93174.88
2022-12-18T08:42:52.482Z,93200.13
2022-12-18T08:45:21.685Z,93218.81
2022-12-18T08:47:49.546Z,93235.06
2022-12-18T08:50:17.455Z,93268.59
2022-12-18T08:52:45.441Z,93286.50
2022-12-18T08:58:31.485Z,93341.16
2022-12-18T09:01:03.923Z,93368.94
2022-12-18T09:03:31.962Z,93383.47
2022-12-18T09:06:00.481Z,93414.53
2022-12-18T09:08:28.756Z,93443.88
2022-12-18T09:10:56.672Z,93475.72
2022-12-18T09:13:25.009Z,93509.09
2022-12-18T09:15:55.022Z,93542.59
2022-12-18T09:18:25.707Z,93576.09
2022-12-18T09:20:54.090Z,93629.94
2022-12-18T09:23:24.405Z,93674.06
2022-12-18T09:25:52.231Z,93733.81
2022-12-18T09:31:18.442Z,93822.03
2022-12-18T09:33:47.796Z,93867.94
2022-12-18T09:36:18.535Z,93911.38
2022-12-18T09:38:46.788Z,93946.50
2022-12-18T09:41:39.064Z,93977.59
2022-12-18T09:44:15.800Z,94040.66
2022-12-18T09:46:48.190Z,94105.38
2022-12-18T09:49:22.493Z,94178.22
2022-12-18T09:51:54.914Z,94233.28
2022-12-18T09:54:24.501Z,94296.41
2022-12-18T09:56:52.365Z,94342.28
2022-12-18T09:59:25.999Z,94394.81
2022-12-18T10:01:54.029Z,94452.34
2022-12-18T10:04:23.439Z,94510.69
2022-12-18T10:06:57.007Z,94569.88
2022-12-18T10:09:33.010Z,94621.53
2022-12-18T10:12:10.427Z,94685.69
2022-12-18T10:14:45.178Z,94758.00
2022-12-18T10:17:24.452Z,94811.53
2022-12-18T10:19:57.722Z,94859.34
2022-12-18T10:22:41.954Z,94903.78
2022-12-18T10:25:20.655Z,94963.94
2022-12-18T10:27:49.196Z,95013.34
2022-12-18T10:30:20.001Z,95085.06
2022-12-18T10:32:48.114Z,95135.34
2022-12-18T10:35:21.781Z,95193.94
2022-12-18T10:38:06.636Z,95278.97
2022-12-18T10:40:36.385Z,95343.28
2022-12-18T10:43:12.682Z,95416.84
2022-12-18T10:45:43.270Z,95484.66
2022-12-18T10:48:21.225Z,95534.22
2022-12-18T10:53:43.563Z,95661.47
2022-12-18T10:56:11.701Z,95726.06
2022-12-18T10:58:41.221Z,95784.09
2022-12-18T11:01:14.182Z,95827.13
2022-12-18T11:03:44.222Z,95876.88
2022-12-18T11:06:16.236Z,95916.63
2022-12-18T11:08:46.291Z,95969.66
2022-12-18T11:11:22.696Z,96021.09
2022-12-18T11:14:01.246Z,96077.56
2022-12-18T11:16:31.869Z,96117.31
2022-12-18T11:19:26.311Z,96172.97
2022-12-18T11:21:55.653Z,96221.97
2022-12-18T11:24:30.200Z,96270.13
2022-12-18T11:27:00.400Z,96315.00
2022-12-18T11:29:34.755Z,96356.53
2022-12-18T11:32:28.519Z,96400.56
2022-12-18T11:35:04.155Z,96429.69
2022-12-18T11:37:35.601Z,96455.53
2022-12-18T11:40:11.502Z,96466.25
2022-12-18T11:42:47.909Z,96497.09
2022-12-18T11:45:39.346Z,96519.53
2022-12-18T11:48:17.071Z,96547.84
2022-12-18T11:50:50.659Z,96576.97
2022-12-18T11:53:21.433Z,96596.03
2022-12-18T11:56:05.144Z,96620.22
2022-12-18T11:58:47.110Z,96629.41
2022-12-18T12:01:36.511Z,96628.59
2022-12-18T12:04:26.971Z,96621.09
2022-12-18T12:07:04.636Z,96621.97
2022-12-18T12:09:41.368Z,96601.06
2022-12-18T12:12:25.949Z,96611.97
2022-12-18T12:15:06.640Z,96620.31
2022-12-18T12:17:40.916Z,96625.31
2022-12-18T12:20:17.517Z,96635.31
2022-12-18T12:22:54.564Z,96626.88
2022-12-18T12:25:35.363Z,96634.44
2022-12-18T12:28:17.439Z,96635.25
2022-12-18T12:30:59.331Z,96633.63
2022-12-18T12:33:39.585Z,96638.66
2022-12-18T12:36:19.176Z,96638.66
2022-12-18T12:38:52.497Z,96634.44
2022-12-18T12:41:43.130Z,96641.09
2022-12-18T12:44:19.059Z,96653.63
2022-12-18T12:46:49.832Z,96656.09
2022-12-18T12:49:22.406Z,96667.00
2022-12-18T12:51:59.268Z,96677.84
2022-12-18T12:54:29.512Z,96681.19
2022-12-18T12:57:04.944Z,96692.81
2022-12-18T12:59:42.641Z,96687.78
2022-12-18T13:02:20.183Z,96696.09
2022-12-18T13:04:54.638Z,96707.81
2022-12-18T13:07:31.292Z,96714.41
2022-12-18T13:10:34.556Z,96726.09
2022-12-18T13:13:07.311Z,96741.13
2022-12-18T13:16:07.323Z,96731.09
2022-12-18T13:18:36.149Z,96735.25
2022-12-18T13:21:14.067Z,96737.81
2022-12-18T13:23:42.528Z,96739.50
2022-12-18T13:26:36.784Z,96727.84
2022-12-18T13:29:07.119Z,96721.16
2022-12-18T13:32:01.432Z,96715.31
2022-12-18T13:34:32.076Z,96711.16
2022-12-18T13:37:34.027Z,96707.81
2022-12-18T13:40:02.255Z,96697.84
2022-12-18T13:43:00.585Z,96683.72
2022-12-18T13:45:47.989Z,96683.75
2022-12-18T13:48:25.694Z,96661.19
2022-12-18T13:50:59.734Z,96662.91
2022-12-18T13:53:32.048Z,96651.22
2022-12-18T13:56:00.500Z,96649.63
2022-12-18T13:58:28.414Z,96651.31
2022-12-18T14:00:57.763Z,96635.44
2022-12-18T14:03:28.195Z,96631.28
2022-12-18T14:05:58.984Z,96626.34
2022-12-18T14:08:32.900Z,96612.97
2022-12-18T14:11:01.031Z,96604.69
2022-12-18T14:13:31.304Z,96597.19
2022-12-18T14:16:03.832Z,96582.19
2022-12-18T14:18:40.995Z,96579.72
2022-12-18T14:21:19.946Z,96572.19
2022-12-18T14:23:47.889Z,96567.97
2022-12-18T14:26:25.508Z,96568.91
2022-12-18T14:28:54.815Z,96556.38
2022-12-18T14:31:26.334Z,96553.09
2022-12-18T14:33:55.127Z,96535.63
2022-12-18T14:36:24.638Z,96528.94
2022-12-18T14:38:54.719Z,96525.66
2022-12-18T14:41:23.492Z,96516.50
2022-12-18T14:43:53.579Z,96512.34
2022-12-18T14:46:36.424Z,96509.88
2022-12-18T14:49:06.715Z,96509.06
2022-12-18T14:51:36.340Z,96505.69
2022-12-18T14:54:08.997Z,96514.06
2022-12-18T14:56:37.861Z,96511.53
2022-12-18T14:59:07.977Z,96517.31
2022-12-18T15:01:39.653Z,96506.56
2022-12-18T15:04:27.525Z,96489.84
2022-12-18T15:07:06.629Z,96493.28
2022-12-18T15:09:34.591Z,96481.59
2022-12-18T15:12:03.735Z,96484.97
2022-12-18T15:14:40.997Z,96472.44
2022-12-18T15:17:20.520Z,96459.97
2022-12-18T15:19:50.893Z,96454.97
2022-12-18T15:22:28.937Z,96460.00
2022-12-18T15:24:59.874Z,96454.97
2022-12-18T15:27:36.349Z,96456.75
2022-12-18T15:30:28.452Z,96450.00
2022-12-18T15:33:27.098Z,96444.16
2022-12-18T15:35:59.039Z,96443.34
2022-12-18T15:38:27.595Z,96452.53
2022-12-18T15:40:55.954Z,96452.53
2022-12-18T15:43:38.020Z,96450.06
2022-12-18T15:46:08.898Z,96443.34
2022-12-18T15:48:42.102Z,96453.41
2022-12-18T15:51:16.306Z,96442.53
2022-12-18T15:53:44.927Z,96454.25
2022-12-18T15:56:31.268Z,96441.66
2022-12-18T15:58:59.588Z,96455.03
2022-12-18T16:01:29.589Z,96466.69
2022-12-18T16:03:59.674Z,96483.34
2022-12-18T16:06:36.352Z,96487.50
2022-12-18T16:09:13.125Z,96487.44
2022-12-18T16:11:47.082Z,96491.59
2022-12-18T16:14:20.120Z,96492.34
2022-12-18T16:16:49.428Z,96505.75
2022-12-18T16:19:19.043Z,96509.94
2022-12-18T16:21:48.184Z,96519.16
2022-12-18T16:24:17.965Z,96520.78
2022-12-18T16:26:46.390Z,96505.72
2022-12-18T16:29:14.320Z,96511.59
2022-12-18T16:31:42.719Z,96509.94
2022-12-18T16:34:15.246Z,96515.81
2022-12-18T16:36:44.602Z,96509.94
2022-12-18T16:39:12.533Z,96509.94
2022-12-18T16:41:40.392Z,96499.06
2022-12-18T16:44:08.383Z,96507.47
2022-12-18T16:46:36.276Z,96514.19
2022-12-18T16:49:04.490Z,96497.44
2022-12-18T16:51:35.581Z,96501.66
2022-12-18T16:54:10.177Z,96503.31
2022-12-18T16:56:39.848Z,96512.50
2022-12-18T16:59:07.904Z,96511.66
2022-12-18T17:01:35.919Z,96519.16
2022-12-18T17:04:06.986Z,96529.16
2022-12-18T17:06:37.024Z,96527.41
2022-12-18T17:09:08.562Z,96534.06
2022-12-18T17:11:37.024Z,96538.28
2022-12-18T17:14:08.396Z,96537.41
2022-12-18T17:16:36.865Z,96534.91
2022-12-18T17:19:05.747Z,96539.09
2022-12-18T17:21:33.740Z,96544.13
2022-12-18T17:24:02.158Z,96545.69
2022-12-18T17:26:31.751Z,96550.75
2022-12-18T17:29:00.242Z,96549.91
2022-12-18T17:31:30.481Z,96555.72
2022-12-18T17:33:59.167Z,96560.66
2022-12-18T17:36:29.292Z,96569.88
2022-12-18T17:38:59.409Z,96574.91
2022-12-18T17:41:29.092Z,96580.75
2022-12-18T17:44:00.688Z,96577.34
2022-12-18T17:46:30.667Z,96585.72
2022-12-18T17:48:59.488Z,96595.75
2022-12-18T17:51:28.480Z,96593.16
2022-12-18T17:53:56.551Z,96607.38
2022-12-18T17:56:25.027Z,96603.16
2022-12-18T17:58:54.022Z,96612.34
2022-12-18T18:01:25.429Z,96612.34
2022-12-18T18:03:54.129Z,96613.19
2022-12-18T18:06:22.924Z,96619.84
2022-12-18T18:08:51.255Z,96618.16
2022-12-18T18:11:39.008Z,96619.81
2022-12-18T18:14:12.160Z,96624.81
2022-12-18T18:16:43.866Z,96633.94
2022-12-18T18:19:15.326Z,96642.31
2022-12-18T18:21:50.076Z,96643.16
2022-12-18T18:24:21.293Z,96642.28
2022-12-18T18:26:49.197Z,96641.44
2022-12-18T18:29:19.717Z,96649.00
2022-12-18T18:31:49.604Z,96648.13
2022-12-18T18:34:20.244Z,96654.00
2022-12-18T18:36:48.189Z,96659.81
2022-12-18T18:39:16.136Z,96653.13
2022-12-18T18:41:46.477Z,96660.66
2022-12-18T18:44:16.620Z,96664.81
2022-12-18T18:46:44.853Z,96671.47
2022-12-18T18:49:14.652Z,96676.47
2022-12-18T18:51:42.583Z,96680.63
2022-12-18T18:54:11.073Z,96671.44
2022-12-18T18:57:18.680Z,96675.66
2022-12-18T18:59:32.043Z,96668.16
2022-12-18T19:02:04.124Z,96678.16
2022-12-18T19:04:34.663Z,96684.78
2022-12-18T19:07:02.681Z,96693.97
2022-12-18T19:09:31.250Z,96703.97
2022-12-18T19:12:16.824Z,96713.13
2022-12-18T19:14:45.252Z,96710.59
2022-12-18T19:17:13.031Z,96715.66
2022-12-18T19:19:42.650Z,96713.94
2022-12-18T19:22:11.434Z,96735.66
2022-12-18T19:24:39.746Z,96749.84
2022-12-18T19:27:07.591Z,96751.47
2022-12-18T19:29:35.458Z,96766.47
2022-12-18T19:32:05.344Z,96772.28
2022-12-18T19:34:33.227Z,96776.44
2022-12-18T19:37:02.880Z,96783.94
2022-12-18T19:39:30.819Z,96785.63
2022-12-18T19:41:58.595Z,96784.75
2022-12-18T19:44:26.819Z,96791.50
2022-12-18T19:46:54.675Z,96792.31
2022-12-18T19:49:22.583Z,96795.66
2022-12-18T19:51:50.701Z,96798.19
2022-12-18T19:54:20.057Z,96788.91
2022-12-18T19:56:47.873Z,96799.00
2022-12-18T19:59:15.878Z,96795.59
2022-12-18T20:01:43.876Z,96809.84
2022-12-18T20:04:11.969Z,96808.13
2022-12-18T20:06:49.440Z,96810.59
2022-12-18T20:09:18.646Z,96816.50
2022-12-18T20:11:48.700Z,96813.16
2022-12-18T20:14:22.673Z,96803.97
2022-12-18T20:16:52.160Z,96805.63
2022-12-18T20:19:20.799Z,96800.59
2022-12-18T20:21:49.010Z,96811.53
2022-12-18T20:24:17.025Z,96814.88
2022-12-18T20:26:44.936Z,96815.63
2022-12-18T20:29:14.155Z,96823.19
2022-12-18T20:31:42.220Z,96819.78
2022-12-18T20:34:10.052Z,96829.81
2022-12-18T20:36:38.678Z,96827.31
2022-12-18T20:39:08.832Z,96831.47
2022-12-18T20:41:39.120Z,96834.81
2022-12-18T20:44:18.994Z,96833.16
2022-12-18T20:47:00.252Z,96847.34
2022-12-18T20:49:31.329Z,96852.31
2022-12-18T20:51:59.411Z,96853.19
2022-12-18T20:54:28.312Z,96847.34
2022-12-18T20:56:59.435Z,96848.16
2022-12-18T20:59:27.644Z,96846.50
2022-12-18T21:01:55.856Z,96839.00
2022-12-18T21:04:26.020Z,96844.81
2022-12-18T21:06:57.902Z,96840.66
2022-12-18T21:09:37.621Z,96847.34
2022-12-18T21:12:44.057Z,96852.38
2022-12-18T21:15:28.495Z,96853.19
2022-12-18T21:17:56.691Z,96853.16
2022-12-18T21:20:25.979Z,96861.47
2022-12-18T21:22:54.004Z,96873.19
2022-12-18T21:25:24.212Z,96877.34
2022-12-18T21:27:52.094Z,96874.81
2022-12-18T21:30:20.084Z,96884.84
2022-12-18T21:32:48.014Z,96882.34
2022-12-18T21:35:16.037Z,96886.56
2022-12-18T21:37:46.601Z,96877.34
2022-12-18T21:40:14.976Z,96879.88
2022-12-18T21:43:00.187Z,96876.53
2022-12-18T21:45:27.983Z,96879.88
2022-12-18T21:47:55.741Z,96870.72
2022-12-18T21:50:23.634Z,96866.53
2022-12-18T21:52:52.888Z,96869.03
2022-12-18T21:58:12.726Z,96861.59
2022-12-18T22:00:43.444Z,96854.03
2022-12-18T22:03:18.289Z,96845.69
2022-12-18T22:05:47.135Z,96851.63
2022-12-18T22:08:25.401Z,96859.84
2022-12-18T22:10:53.337Z,96872.38
2022-12-18T22:13:21.394Z,96868.22
2022-12-18T22:15:49.494Z,96864.06
2022-12-18T22:18:17.627Z,96867.41
2022-12-18T22:20:45.513Z,96863.19
2022-12-18T22:23:13.343Z,96870.75
2022-12-18T22:25:42.561Z,96877.44
2022-12-18T22:28:33.366Z,96871.56
2022-12-18T22:31:01.224Z,96873.25
2022-12-18T22:33:29.372Z,96871.53
2022-12-18T22:35:57.403Z,96881.56
2022-12-18T22:38:25.184Z,96884.09
2022-12-18T22:40:55.891Z,96885.72
2022-12-18T22:43:23.848Z,96890.72
2022-12-18T22:45:51.662Z,96893.31
2022-12-18T22:48:19.829Z,96889.06
2022-12-18T22:50:47.628Z,96894.94
2022-12-18T22:53:17.040Z,96886.56
2022-12-18T22:55:44.871Z,96894.88
2022-12-18T22:58:17.635Z,96912.47
2022-12-18T23:00:45.424Z,96914.94
2022-12-18T23:06:35.448Z,96925.72
2022-12-18T23:09:03.365Z,96932.47
2022-12-18T23:11:56.532Z,96929.94
2022-12-18T23:14:24.380Z,96934.97
2022-12-18T23:16:55.042Z,96934.09
2022-12-18T23:19:23.777Z,96942.50
2022-12-18T23:21:54.839Z,96946.59
2022-12-18T23:24:25.753Z,96958.34
2022-12-18T23:26:53.579Z,96967.53
2022-12-18T23:29:21.738Z,96984.19
2022-12-18T23:31:49.578Z,96988.34
2022-12-18T23:34:17.929Z,97004.25
2022-12-18T23:36:46.943Z,97005.00
2022-12-18T23:39:28.886Z,97004.19
2022-12-18T23:41:58.279Z,97012.59
2022-12-18T23:44:26.204Z,97020.91
2022-12-18T23:46:54.086Z,97027.59
2022-12-18T23:49:22.293Z,97035.88
2022-12-18T23:51:50.146Z,97051.78
2022-12-18T23:54:21.113Z,97060.09
2022-12-18T23:56:59.528Z,97063.44
2022-12-18T23:59:27.550Z,97070.16
